XBFGP MMJC-MMPC
Flight info
| Callsign | XBFGP |
|---|---|
| Flight time | 0h 9m |
| Altitude | 13500 |
| Route | MMTO DCT MMJC |
| Aircraft | TBM9/L-V/N |
Departure
| Time | 2026-05-05 05:16 |
|---|---|
| Airport | Jorge Jiménez Cantú National Airport (MMJC) |
Arrival
| Time | 2026-05-05 05:25 |
|---|---|
| Airport | Engineer Juan Guillermo Villasana National Airport (MMPC) |
| Time | Latitude | Longitude | Altitude | Speed | Heading |
|---|---|---|---|---|---|
| 2026-05-05 05:12 | 19.57257 | -99.29240 | 8151 ft | 0 kts | 311° |
| 2026-05-05 05:14 | 19.57271 | -99.29218 | 8261 ft | 12 kts | 115° |
| 2026-05-05 05:15 | 19.57225 | -99.29185 | 8262 ft | 10 kts | 58° |
| 2026-05-05 05:15 | 19.57382 | -99.29013 | 8247 ft | 63 kts | 45° |
| 2026-05-05 05:15 | 19.57809 | -99.28524 | 8251 ft | 112 kts | 43° |
| 2026-05-05 05:15 | 19.58469 | -99.27930 | 8388 ft | 143 kts | 38° |
| 2026-05-05 05:16 | 19.59224 | -99.27161 | 8694 ft | 153 kts | 46° |
| 2026-05-05 05:16 | 19.59984 | -99.26360 | 9132 ft | 155 kts | 44° |
| 2026-05-05 05:16 | 19.60769 | -99.25573 | 9681 ft | 156 kts | 43° |
| 2026-05-05 05:16 | 19.61555 | -99.24786 | 10227 ft | 156 kts | 43° |
| 2026-05-05 05:17 | 19.62341 | -99.23994 | 10745 ft | 156 kts | 44° |
| 2026-05-05 05:17 | 19.63132 | -99.23195 | 11282 ft | 157 kts | 44° |
| 2026-05-05 05:17 | 19.63960 | -99.22355 | 11656 ft | 171 kts | 44° |
| 2026-05-05 05:17 | 19.64852 | -99.21447 | 12043 ft | 184 kts | 44° |
| 2026-05-05 05:18 | 19.65807 | -99.20480 | 12431 ft | 195 kts | 44° |
| 2026-05-05 05:18 | 19.66801 | -99.19474 | 12827 ft | 205 kts | 44° |
| 2026-05-05 05:18 | 19.67853 | -99.18407 | 13225 ft | 213 kts | 44° |
| 2026-05-05 05:18 | 19.68944 | -99.17303 | 13629 ft | 220 kts | 44° |
| 2026-05-05 05:19 | 19.70087 | -99.16145 | 13783 ft | 237 kts | 44° |
| 2026-05-05 05:19 | 19.71324 | -99.14886 | 13809 ft | 255 kts | 44° |
| 2026-05-05 05:19 | 19.72639 | -99.13550 | 13824 ft | 267 kts | 44° |
| 2026-05-05 05:19 | 19.74006 | -99.12166 | 13833 ft | 275 kts | 44° |
| 2026-05-05 05:20 | 19.75404 | -99.10749 | 13848 ft | 281 kts | 44° |
| 2026-05-05 05:20 | 19.76828 | -99.09308 | 13849 ft | 284 kts | 44° |
| 2026-05-05 05:20 | 19.78262 | -99.07856 | 13849 ft | 287 kts | 44° |
| 2026-05-05 05:20 | 19.79711 | -99.06389 | 13849 ft | 288 kts | 44° |
| 2026-05-05 05:21 | 19.81163 | -99.04918 | 13849 ft | 289 kts | 44° |
| 2026-05-05 05:21 | 19.82617 | -99.03445 | 13847 ft | 289 kts | 44° |
| 2026-05-05 05:21 | 19.84077 | -99.01966 | 13839 ft | 290 kts | 44° |
| 2026-05-05 05:21 | 19.85537 | -99.00484 | 13824 ft | 290 kts | 44° |
| 2026-05-05 05:22 | 19.86999 | -98.99002 | 13802 ft | 290 kts | 44° |
| 2026-05-05 05:22 | 19.88442 | -98.97538 | 13784 ft | 291 kts | 44° |
| 2026-05-05 05:22 | 19.89902 | -98.96055 | 13762 ft | 291 kts | 44° |
| 2026-05-05 05:22 | 19.91363 | -98.94572 | 13738 ft | 291 kts | 44° |
| 2026-05-05 05:23 | 19.92829 | -98.93084 | 13719 ft | 291 kts | 44° |
| 2026-05-05 05:23 | 19.94291 | -98.91599 | 13698 ft | 290 kts | 44° |
| 2026-05-05 05:23 | 19.95752 | -98.90115 | 13675 ft | 291 kts | 44° |
| 2026-05-05 05:23 | 19.97215 | -98.88629 | 13652 ft | 291 kts | 44° |
| 2026-05-05 05:24 | 19.98676 | -98.87143 | 13628 ft | 291 kts | 43° |
| 2026-05-05 05:24 | 20.00138 | -98.85647 | 13601 ft | 292 kts | 45° |
| 2026-05-05 05:24 | 20.01480 | -98.84016 | 12670 ft | 293 kts | 52° |
| 2026-05-05 05:24 | 20.02803 | -98.82323 | 10825 ft | 311 kts | 49° |
| 2026-05-05 05:25 | 20.04306 | -98.80608 | 9264 ft | 290 kts | 47° |
| 2026-05-05 05:25 | 20.05671 | -98.79607 | 8098 ft | 196 kts | 33° |
| 2026-05-05 05:25 | 20.06626 | -98.79026 | 7665 ft | 133 kts | 34° |
| 2026-05-05 05:25 | 20.07180 | -98.78638 | 7597 ft | 26 kts | 38° |
| 2026-05-05 05:26 | 20.07186 | -98.78633 | 7597 ft | 12 kts | 26° |
| 2026-05-05 05:26 | 20.07305 | -98.78480 | 7599 ft | 31 kts | 85° |
| 2026-05-05 05:26 | 20.07304 | -98.78429 | 7599 ft | 0 kts | 121° |